createdAt,value
2023-04-03T00:00:57.645Z,2.83
2023-04-03T00:03:24.421Z,2.90
2023-04-03T00:05:51.218Z,2.97
2023-04-03T00:08:18.845Z,2.90
2023-04-03T00:10:45.309Z,2.83
2023-04-03T00:13:12.086Z,2.73
2023-04-03T00:15:39.203Z,2.77
2023-04-03T00:18:06.850Z,2.13
2023-04-03T00:20:34.711Z,2.47
2023-04-03T00:23:02.795Z,3.20
2023-04-03T00:25:29.729Z,2.90
2023-04-03T00:27:56.407Z,2.80
2023-04-03T00:30:23.529Z,2.77
2023-04-03T00:32:51.034Z,2.60
2023-04-03T00:35:19.152Z,2.37
2023-04-03T00:37:46.923Z,2.40
2023-04-03T00:40:16.234Z,2.50
2023-04-03T00:42:44.508Z,2.60
2023-04-03T00:45:25.485Z,2.50
2023-04-03T00:47:52.485Z,2.67
2023-04-03T00:50:21.007Z,3.00
2023-04-03T00:52:50.317Z,2.67
2023-04-03T00:55:17.772Z,3.10
2023-04-03T00:57:47.019Z,2.97
2023-04-03T01:00:17.300Z,2.30
2023-04-03T01:02:45.811Z,2.70
2023-04-03T01:05:17.299Z,2.47
2023-04-03T01:07:46.136Z,2.87
2023-04-03T01:10:16.534Z,2.60
2023-04-03T01:12:46.778Z,2.80
2023-04-03T01:15:26.888Z,3.00
2023-04-03T01:17:58.953Z,2.83
2023-04-03T01:20:38.628Z,2.70
2023-04-03T01:23:11.141Z,2.67
2023-04-03T01:25:44.153Z,2.73
2023-04-03T01:28:21.744Z,2.87
2023-04-03T01:31:06.765Z,2.97
2023-04-03T01:33:36.583Z,2.80
2023-04-03T01:36:04.642Z,2.80
2023-04-03T01:38:32.327Z,2.93
2023-04-03T01:40:59.010Z,2.60
2023-04-03T01:43:25.669Z,3.57
2023-04-03T01:45:54.174Z,3.67
2023-04-03T01:48:21.193Z,3.60
2023-04-03T01:50:49.830Z,3.10
2023-04-03T01:53:16.738Z,3.50
2023-04-03T01:55:43.727Z,2.73
2023-04-03T01:58:11.076Z,3.67
2023-04-03T02:00:38.479Z,3.27
2023-04-03T02:03:05.785Z,3.67
2023-04-03T02:05:34.039Z,3.90
2023-04-03T02:08:01.000Z,3.30
2023-04-03T02:10:28.698Z,3.20
2023-04-03T02:12:57.041Z,3.70
2023-04-03T02:15:23.937Z,3.10
2023-04-03T02:17:50.488Z,3.30
2023-04-03T02:20:17.403Z,3.70
2023-04-03T02:22:44.193Z,3.00
2023-04-03T02:25:11.361Z,3.40
2023-04-03T02:27:37.938Z,3.57
2023-04-03T02:30:05.434Z,3.03
2023-04-03T02:32:33.496Z,3.40
2023-04-03T02:35:01.749Z,3.27
2023-04-03T02:37:28.318Z,3.27
2023-04-03T02:39:55.048Z,3.37
2023-04-03T02:42:21.716Z,2.90
2023-04-03T02:44:48.434Z,3.20
2023-04-03T02:47:14.942Z,3.47
2023-04-03T02:49:41.551Z,3.10
2023-04-03T02:52:08.402Z,3.40
2023-04-03T02:54:34.918Z,2.87
2023-04-03T02:57:05.368Z,3.07
2023-04-03T02:59:31.939Z,3.00
2023-04-03T03:01:58.605Z,2.83
2023-04-03T03:04:25.339Z,3.10
2023-04-03T03:06:51.869Z,3.00
2023-04-03T03:09:18.482Z,3.00
2023-04-03T03:11:45.294Z,2.53
2023-04-03T03:14:11.776Z,2.50
2023-04-03T03:16:38.292Z,2.37
2023-04-03T03:19:05.079Z,2.70
2023-04-03T03:21:32.079Z,2.60
2023-04-03T03:23:58.739Z,3.00
2023-04-03T03:26:25.993Z,2.77
2023-04-03T03:28:52.535Z,2.70
2023-04-03T03:31:19.140Z,2.70
2023-04-03T03:33:46.000Z,2.30
2023-04-03T03:36:13.547Z,2.30
2023-04-03T03:38:40.294Z,2.57
2023-04-03T03:41:07.038Z,2.90
2023-04-03T03:43:38.087Z,2.73
2023-04-03T03:46:06.860Z,2.50
2023-04-03T03:48:33.488Z,3.03
2023-04-03T03:50:59.963Z,2.47
2023-04-03T03:53:30.882Z,2.63
2023-04-03T03:56:02.770Z,2.50
2023-04-03T03:58:30.996Z,2.33
2023-04-03T04:00:57.787Z,2.53
2023-04-03T04:03:25.071Z,2.53
2023-04-03T04:05:52.247Z,3.13
2023-04-03T04:08:19.409Z,2.60
2023-04-03T04:10:47.409Z,2.63
2023-04-03T04:13:17.691Z,2.70
2023-04-03T04:15:45.356Z,2.60
2023-04-03T04:18:13.258Z,2.77
2023-04-03T04:20:42.652Z,2.60
2023-04-03T04:23:09.464Z,2.47
2023-04-03T04:25:37.715Z,2.63
2023-04-03T04:28:06.254Z,2.40
2023-04-03T04:30:33.009Z,2.80
2023-04-03T04:32:59.904Z,2.43
2023-04-03T04:35:27.531Z,2.60
2023-04-03T04:37:54.067Z,2.60
2023-04-03T04:40:21.735Z,2.40
2023-04-03T04:42:49.063Z,2.77
2023-04-03T04:45:17.019Z,2.60
2023-04-03T04:47:45.683Z,2.20
2023-04-03T04:50:12.877Z,2.10
2023-04-03T04:52:42.571Z,2.47
2023-04-03T04:55:09.926Z,2.57
2023-04-03T04:57:38.065Z,2.43
2023-04-03T05:00:06.069Z,2.27
2023-04-03T05:02:32.841Z,2.47
2023-04-03T05:04:59.786Z,2.63
2023-04-03T05:07:29.041Z,2.67
2023-04-03T05:09:57.836Z,2.40
2023-04-03T05:12:24.454Z,2.63
2023-04-03T05:14:56.248Z,2.37
2023-04-03T05:17:24.622Z,2.63
2023-04-03T05:19:55.146Z,2.60
2023-04-03T05:22:23.084Z,2.27
2023-04-03T05:24:52.350Z,2.37
2023-04-03T05:27:20.345Z,2.53
2023-04-03T05:29:54.026Z,2.20
2023-04-03T05:32:24.526Z,2.50
2023-04-03T05:35:00.090Z,2.73
2023-04-03T05:37:28.143Z,2.90
2023-04-03T05:39:55.932Z,2.70
2023-04-03T05:42:22.996Z,2.50
2023-04-03T05:44:51.075Z,2.83
2023-04-03T05:47:19.111Z,2.77
2023-04-03T05:49:46.686Z,2.70
2023-04-03T05:52:23.806Z,3.30
2023-04-03T05:54:53.414Z,3.40
2023-04-03T05:57:25.561Z,2.90
2023-04-03T05:59:52.345Z,3.20
2023-04-03T06:02:22.648Z,3.43
2023-04-03T06:04:50.711Z,3.10
2023-04-03T06:07:22.060Z,3.20
2023-04-03T06:09:52.112Z,3.00
2023-04-03T06:12:19.583Z,2.47
2023-04-03T06:14:46.543Z,2.63
2023-04-03T06:17:17.054Z,3.00
2023-04-03T06:19:43.771Z,3.00
2023-04-03T06:22:10.540Z,3.10
2023-04-03T06:24:38.095Z,3.10
2023-04-03T06:27:05.508Z,2.80
2023-04-03T06:29:32.047Z,3.10
2023-04-03T06:31:58.992Z,3.07
2023-04-03T06:34:25.716Z,3.17
2023-04-03T06:36:53.004Z,3.23
2023-04-03T06:39:23.541Z,3.07
2023-04-03T06:41:51.585Z,3.20
2023-04-03T06:44:19.633Z,2.80
2023-04-03T06:46:47.737Z,2.63
2023-04-03T06:49:14.735Z,2.60
2023-04-03T06:51:41.630Z,2.63
2023-04-03T06:54:09.248Z,2.63
2023-04-03T06:56:36.342Z,2.60
2023-04-03T06:59:05.723Z,2.40
2023-04-03T07:01:32.795Z,2.27
2023-04-03T07:03:59.351Z,2.77
2023-04-03T07:06:28.094Z,2.23
2023-04-03T07:08:55.279Z,2.50
2023-04-03T07:11:21.812Z,2.80
2023-04-03T07:13:48.337Z,2.30
2023-04-03T07:16:14.965Z,2.20
2023-04-03T07:18:42.561Z,2.30
2023-04-03T07:21:10.104Z,2.90
2023-04-03T07:23:36.690Z,2.57
2023-04-03T07:26:03.583Z,2.30
2023-04-03T07:28:30.748Z,2.50
2023-04-03T07:31:04.633Z,2.47
2023-04-03T07:33:32.165Z,2.30
2023-04-03T07:36:01.552Z,2.33
2023-04-03T07:38:28.966Z,2.30
2023-04-03T07:40:55.684Z,2.50
2023-04-03T07:43:25.413Z,2.83
2023-04-03T07:45:52.157Z,3.00
2023-04-03T07:48:21.482Z,3.10
2023-04-03T07:50:48.019Z,2.70
2023-04-03T07:53:15.183Z,3.03
2023-04-03T07:55:45.161Z,2.73
2023-04-03T07:58:16.902Z,2.20
2023-04-03T08:00:43.795Z,3.00
2023-04-03T08:03:12.923Z,2.57
2023-04-03T08:05:43.892Z,2.37
2023-04-03T08:08:12.772Z,2.70
2023-04-03T08:10:39.765Z,2.50
2023-04-03T08:13:07.281Z,2.47
2023-04-03T08:15:34.194Z,3.07
2023-04-03T08:18:01.779Z,2.37
2023-04-03T08:20:29.494Z,2.60
2023-04-03T08:22:56.328Z,2.50
2023-04-03T08:25:23.031Z,2.90
2023-04-03T08:27:49.659Z,2.60
2023-04-03T08:30:16.316Z,2.70
2023-04-03T08:32:44.142Z,2.67
2023-04-03T08:35:11.642Z,2.77
2023-04-03T08:37:39.170Z,2.50
2023-04-03T08:40:08.137Z,2.63
2023-04-03T08:42:37.700Z,2.50
2023-04-03T08:45:13.646Z,2.83
2023-04-03T08:47:46.236Z,2.37
2023-04-03T08:50:19.712Z,2.80
2023-04-03T08:52:53.672Z,2.70
2023-04-03T08:55:25.563Z,2.53
2023-04-03T08:58:06.359Z,2.90
2023-04-03T09:00:46.507Z,2.77
2023-04-03T09:03:16.237Z,2.63
2023-04-03T09:05:46.408Z,2.30
2023-04-03T09:08:31.195Z,3.23
2023-04-03T09:11:33.553Z,3.00
2023-04-03T09:14:30.340Z,2.70
2023-04-03T09:17:00.540Z,2.20
2023-04-03T09:19:36.135Z,2.33
2023-04-03T09:22:25.654Z,2.80
2023-04-03T09:25:01.219Z,2.67
2023-04-03T09:27:28.111Z,2.60
2023-04-03T09:29:58.483Z,2.70
2023-04-03T09:32:34.383Z,1.63
2023-04-03T09:35:19.065Z,2.17
2023-04-03T09:37:52.472Z,1.90
2023-04-03T09:40:27.833Z,1.93
2023-04-03T09:43:01.839Z,2.20
2023-04-03T09:45:32.671Z,2.30
2023-04-03T09:48:08.537Z,1.90
2023-04-03T09:50:38.456Z,2.20
2023-04-03T09:53:08.210Z,2.37
2023-04-03T09:55:45.541Z,2.30
2023-04-03T09:58:46.832Z,1.83
2023-04-03T10:01:37.600Z,2.27
2023-04-03T10:04:16.423Z,2.13
2023-04-03T10:06:47.757Z,2.07
2023-04-03T10:09:29.710Z,1.70
2023-04-03T10:12:13.339Z,1.90
2023-04-03T10:14:54.452Z,1.90
2023-04-03T10:17:50.108Z,2.10
2023-04-03T10:20:31.772Z,1.60
2023-04-03T10:23:15.406Z,1.80
2023-04-03T10:26:06.665Z,1.80
2023-04-03T10:28:49.234Z,1.80
2023-04-03T10:31:38.287Z,1.90
2023-04-03T10:34:20.403Z,2.03
2023-04-03T10:37:16.537Z,1.60
2023-04-03T10:40:02.928Z,1.60
2023-04-03T10:42:45.894Z,1.80
2023-04-03T10:45:31.756Z,1.70
2023-04-03T10:48:10.037Z,1.80
2023-04-03T10:50:49.489Z,1.83
2023-04-03T10:53:36.362Z,1.83
2023-04-03T10:56:15.204Z,1.60
2023-04-03T10:58:46.845Z,1.93
2023-04-03T11:01:20.024Z,1.90
2023-04-03T11:03:53.913Z,2.17
2023-04-03T11:06:25.538Z,2.20
2023-04-03T11:08:58.080Z,1.90
2023-04-03T11:11:41.530Z,2.00
2023-04-03T11:14:33.376Z,1.90
2023-04-03T11:17:12.113Z,1.60
2023-04-03T11:20:01.087Z,1.73
2023-04-03T11:22:38.573Z,1.47
2023-04-03T11:25:16.580Z,1.47
2023-04-03T11:27:51.818Z,1.37
2023-04-03T11:30:44.776Z,1.70
2023-04-03T11:33:52.830Z,1.50
2023-04-03T11:36:29.991Z,1.57
2023-04-03T11:39:02.012Z,1.50
2023-04-03T11:41:33.850Z,1.30
2023-04-03T11:44:07.639Z,1.53
2023-04-03T11:46:51.589Z,1.70
2023-04-03T11:49:56.780Z,1.50
2023-04-03T11:52:44.898Z,2.43
2023-04-03T11:55:21.159Z,2.03
2023-04-03T11:57:59.643Z,1.80
2023-04-03T12:00:44.562Z,2.10
2023-04-03T12:03:30.330Z,2.20
2023-04-03T12:06:06.536Z,1.60
2023-04-03T12:08:46.989Z,1.77
2023-04-03T12:11:13.439Z,1.87
2023-04-03T12:14:04.620Z,1.57
2023-04-03T12:16:45.754Z,1.40
2023-04-03T12:19:15.272Z,1.80
2023-04-03T12:21:44.806Z,1.60
2023-04-03T12:24:11.825Z,1.63
2023-04-03T12:26:49.029Z,1.77
2023-04-03T12:29:29.832Z,1.80
2023-04-03T12:32:08.425Z,1.60
2023-04-03T12:34:59.019Z,1.73
2023-04-03T12:37:59.570Z,1.93
2023-04-03T12:40:37.985Z,1.63
2023-04-03T12:43:18.467Z,1.80
2023-04-03T12:45:51.568Z,1.60
2023-04-03T12:48:23.167Z,1.50
2023-04-03T12:50:50.946Z,1.83
2023-04-03T12:53:25.751Z,1.80
2023-04-03T12:56:18.863Z,1.67
2023-04-03T12:58:45.891Z,1.60
2023-04-03T13:01:15.922Z,1.90
2023-04-03T13:03:48.466Z,1.57
2023-04-03T13:06:20.098Z,1.60
2023-04-03T13:09:00.324Z,1.60
2023-04-03T13:11:33.690Z,2.07
2023-04-03T13:14:16.914Z,1.73
2023-04-03T13:16:57.098Z,1.50
2023-04-03T13:19:28.287Z,1.63
2023-04-03T13:22:02.094Z,1.60
2023-04-03T13:24:33.639Z,1.70
2023-04-03T13:27:01.095Z,1.57
2023-04-03T13:29:34.423Z,1.73
2023-04-03T13:32:02.214Z,1.70
2023-04-03T13:34:38.092Z,1.70
2023-04-03T13:37:05.680Z,1.63
2023-04-03T13:39:38.189Z,1.67
2023-04-03T13:42:27.594Z,1.70
2023-04-03T13:45:18.808Z,1.53
2023-04-03T13:47:47.443Z,1.50
2023-04-03T13:50:21.997Z,1.43
2023-04-03T13:52:50.671Z,2.03
2023-04-03T13:55:26.537Z,1.63
2023-04-03T13:58:20.686Z,1.33
2023-04-03T14:00:51.795Z,1.60
2023-04-03T14:03:31.389Z,1.77
2023-04-03T14:05:58.547Z,1.70
2023-04-03T14:08:36.096Z,1.70
2023-04-03T14:11:15.904Z,1.77
2023-04-03T14:13:44.624Z,1.87
2023-04-03T14:16:17.598Z,1.47
2023-04-03T14:18:46.495Z,1.67
2023-04-03T14:21:17.160Z,1.73
2023-04-03T14:23:44.748Z,1.60
2023-04-03T14:26:20.855Z,1.63
2023-04-03T14:28:50.885Z,1.47
2023-04-03T14:31:18.771Z,1.60
2023-04-03T14:33:46.138Z,1.20
2023-04-03T14:36:17.091Z,1.60
2023-04-03T14:38:45.222Z,1.67
2023-04-03T14:41:16.954Z,2.03
2023-04-03T14:43:45.745Z,1.50
2023-04-03T14:46:16.237Z,1.83
2023-04-03T14:48:43.551Z,2.10
2023-04-03T14:51:14.743Z,2.13
2023-04-03T14:53:42.901Z,2.20
2023-04-03T14:56:27.371Z,1.70
2023-04-03T14:58:58.316Z,1.57
2023-04-03T15:01:25.305Z,1.60
2023-04-03T15:03:52.007Z,1.70
2023-04-03T15:06:18.779Z,1.60
2023-04-03T15:08:47.678Z,1.80
2023-04-03T15:11:15.375Z,2.00
2023-04-03T15:13:42.341Z,2.00
2023-04-03T15:16:27.626Z,1.70
2023-04-03T15:18:54.150Z,2.03
2023-04-03T15:21:21.160Z,1.70
2023-04-03T15:23:47.676Z,1.73
2023-04-03T15:26:14.433Z,1.97
2023-04-03T15:28:43.398Z,1.60
2023-04-03T15:31:10.231Z,1.90
2023-04-03T15:33:37.519Z,1.80
2023-04-03T15:36:11.962Z,1.57
2023-04-03T15:38:49.306Z,1.47
2023-04-03T15:41:16.284Z,1.90
2023-04-03T15:43:43.154Z,1.87
2023-04-03T15:46:10.573Z,1.50
2023-04-03T15:48:37.883Z,2.00
2023-04-03T15:51:04.521Z,1.80
2023-04-03T15:53:31.081Z,1.87
2023-04-03T15:55:57.538Z,1.47
2023-04-03T15:58:24.175Z,1.77
2023-04-03T16:00:50.785Z,1.73
2023-04-03T16:03:19.375Z,1.77
2023-04-03T16:05:46.802Z,1.90
2023-04-03T16:08:13.786Z,1.90
2023-04-03T16:10:41.972Z,1.87
2023-04-03T16:13:08.597Z,1.77
2023-04-03T16:15:36.304Z,1.70
2023-04-03T16:18:03.559Z,1.97
2023-04-03T16:20:30.374Z,1.60
2023-04-03T16:22:59.664Z,1.77
2023-04-03T16:25:27.259Z,1.80
2023-04-03T16:27:54.263Z,1.60
2023-04-03T16:30:20.998Z,1.77
2023-04-03T16:32:47.665Z,1.80
2023-04-03T16:35:14.571Z,1.67
2023-04-03T16:37:41.287Z,1.50
2023-04-03T16:40:08.890Z,1.60
2023-04-03T16:42:37.373Z,1.50
2023-04-03T16:45:06.864Z,1.50
2023-04-03T16:47:33.446Z,1.90
2023-04-03T16:50:00.401Z,2.07
2023-04-03T16:52:27.094Z,1.70
2023-04-03T16:54:56.346Z,1.70
2023-04-03T16:57:26.000Z,1.53
2023-04-03T16:59:53.757Z,1.90
2023-04-03T17:02:22.577Z,1.60
2023-04-03T17:04:50.858Z,1.57
2023-04-03T17:07:23.325Z,1.87
2023-04-03T17:09:50.293Z,1.70
2023-04-03T17:12:17.182Z,1.90
2023-04-03T17:14:44.086Z,1.83
2023-04-03T17:17:10.654Z,2.17
2023-04-03T17:19:38.808Z,2.03
2023-04-03T17:22:05.942Z,2.30
2023-04-03T17:24:32.452Z,1.97
2023-04-03T17:27:00.278Z,2.23
2023-04-03T17:29:27.082Z,2.27
2023-04-03T17:31:53.857Z,2.33
2023-04-03T17:34:20.838Z,2.23
2023-04-03T17:36:47.443Z,2.20
2023-04-03T17:39:14.288Z,2.10
2023-04-03T17:41:41.159Z,2.13
2023-04-03T17:44:07.674Z,1.90
2023-04-03T17:46:35.563Z,2.07
2023-04-03T17:49:03.266Z,2.00
2023-04-03T17:51:29.807Z,1.90
2023-04-03T17:53:56.491Z,2.13
2023-04-03T17:56:27.307Z,2.23
2023-04-03T17:58:56.569Z,1.73
2023-04-03T18:01:26.996Z,1.73
2023-04-03T18:03:56.067Z,1.93
2023-04-03T18:06:27.201Z,1.70
2023-04-03T18:08:58.546Z,1.87
2023-04-03T18:11:27.762Z,1.90
2023-04-03T18:13:58.546Z,1.50
2023-04-03T18:16:26.579Z,1.70
2023-04-03T18:19:02.469Z,2.07
2023-04-03T18:21:40.019Z,2.00
2023-04-03T18:24:11.952Z,2.00
2023-04-03T18:26:38.665Z,1.80
2023-04-03T18:29:08.833Z,1.70
2023-04-03T18:31:38.111Z,1.60
2023-04-03T18:34:05.780Z,1.60
2023-04-03T18:36:32.913Z,1.17
2023-04-03T18:39:03.374Z,1.40
2023-04-03T18:41:33.807Z,1.63
2023-04-03T18:44:03.108Z,1.33
2023-04-03T18:46:30.157Z,1.47
2023-04-03T18:48:58.633Z,1.53
2023-04-03T18:51:26.174Z,1.20
2023-04-03T18:53:52.735Z,1.40
2023-04-03T18:56:19.186Z,0.90
2023-04-03T18:58:46.105Z,1.43
2023-04-03T19:01:14.142Z,1.50
2023-04-03T19:03:41.196Z,1.37
2023-04-03T19:06:07.931Z,1.50
2023-04-03T19:08:35.715Z,1.40
2023-04-03T19:11:02.499Z,1.23
2023-04-03T19:13:29.385Z,1.60
2023-04-03T19:15:58.965Z,1.60
2023-04-03T19:18:27.018Z,1.27
2023-04-03T19:20:56.190Z,1.60
2023-04-03T19:23:23.824Z,1.50
2023-04-03T19:26:01.902Z,1.70
2023-04-03T19:28:29.453Z,1.57
2023-04-03T19:30:57.810Z,1.20
2023-04-03T19:33:24.956Z,1.83
2023-04-03T19:35:53.406Z,1.33
2023-04-03T19:38:20.302Z,1.30
2023-04-03T19:40:47.203Z,1.30
2023-04-03T19:43:15.438Z,1.63
2023-04-03T19:45:43.731Z,1.50
2023-04-03T19:48:10.872Z,1.10
2023-04-03T19:50:37.882Z,1.13
2023-04-03T19:53:04.769Z,1.17
2023-04-03T19:55:31.562Z,1.40
2023-04-03T19:57:59.982Z,1.30
2023-04-03T20:00:31.573Z,1.50
2023-04-03T20:02:58.428Z,1.30
2023-04-03T20:05:25.325Z,1.27
2023-04-03T20:07:52.602Z,1.53
2023-04-03T20:10:19.602Z,1.33
2023-04-03T20:12:46.259Z,1.10
2023-04-03T20:15:13.351Z,1.50
2023-04-03T20:17:40.150Z,1.63
2023-04-03T20:20:07.492Z,1.67
2023-04-03T20:22:36.540Z,1.63
2023-04-03T20:25:06.726Z,1.73
2023-04-03T20:27:35.224Z,2.00
2023-04-03T20:30:04.064Z,1.63
2023-04-03T20:32:31.742Z,1.67
2023-04-03T20:35:04.310Z,1.40
2023-04-03T20:37:31.949Z,1.50
2023-04-03T20:39:59.051Z,1.53
2023-04-03T20:42:26.316Z,1.60
2023-04-03T20:44:52.795Z,1.57
2023-04-03T20:47:19.644Z,1.60
2023-04-03T20:49:46.556Z,1.50
2023-04-03T20:52:13.496Z,1.60
2023-04-03T20:54:40.812Z,1.40
2023-04-03T20:57:07.543Z,1.70
2023-04-03T20:59:35.096Z,2.10
2023-04-03T21:02:03.701Z,1.70
2023-04-03T21:04:41.473Z,1.90
2023-04-03T21:07:46.663Z,1.77
2023-04-03T21:10:50.623Z,1.87
2023-04-03T21:13:54.830Z,1.60
2023-04-03T21:16:21.596Z,1.80
2023-04-03T21:19:06.120Z,1.60
2023-04-03T21:21:37.075Z,1.70
2023-04-03T21:24:07.083Z,1.60
2023-04-03T21:26:34.243Z,1.80
2023-04-03T21:29:01.437Z,1.90
2023-04-03T21:31:57.040Z,1.60
2023-04-03T21:34:28.694Z,1.63
2023-04-03T21:36:57.305Z,1.90
2023-04-03T21:39:24.052Z,1.70
2023-04-03T21:41:53.506Z,1.80
2023-04-03T21:44:20.827Z,1.87
2023-04-03T21:46:48.175Z,1.63
2023-04-03T21:49:14.936Z,2.00
2023-04-03T21:51:43.261Z,1.50
2023-04-03T21:54:09.856Z,1.67
2023-04-03T21:56:36.313Z,1.77
2023-04-03T21:59:04.392Z,1.93
2023-04-03T22:01:32.336Z,1.77
2023-04-03T22:03:59.561Z,1.83
2023-04-03T22:06:26.684Z,1.80
2023-04-03T22:08:53.442Z,1.83
2023-04-03T22:11:22.405Z,2.03
2023-04-03T22:13:51.942Z,2.07
2023-04-03T22:16:18.732Z,1.67
2023-04-03T22:18:45.581Z,1.70
2023-04-03T22:21:12.096Z,1.67
2023-04-03T22:23:38.680Z,1.90
2023-04-03T22:26:10.696Z,1.73
2023-04-03T22:28:40.166Z,1.90
2023-04-03T22:31:08.081Z,1.83
2023-04-03T22:33:37.818Z,1.90
2023-04-03T22:36:05.553Z,1.80
2023-04-03T22:38:32.632Z,1.90
2023-04-03T22:40:59.799Z,1.87
2023-04-03T22:43:28.506Z,1.80
2023-04-03T22:45:55.993Z,1.93
2023-04-03T22:48:23.788Z,1.70
2023-04-03T22:50:51.579Z,2.00
2023-04-03T22:53:19.363Z,1.80
2023-04-03T22:56:00.295Z,1.90
2023-04-03T22:58:31.075Z,1.80
2023-04-03T23:01:07.179Z,1.73
2023-04-03T23:03:35.308Z,2.00
2023-04-03T23:06:02.633Z,1.47
2023-04-03T23:08:30.291Z,2.03
2023-04-03T23:10:58.372Z,1.77
2023-04-03T23:13:26.108Z,1.80
2023-04-03T23:15:56.841Z,2.10
2023-04-03T23:18:27.399Z,1.70
2023-04-03T23:20:55.278Z,1.80
2023-04-03T23:23:23.403Z,1.90
2023-04-03T23:25:59.158Z,2.10
2023-04-03T23:28:27.098Z,2.03
2023-04-03T23:31:01.615Z,1.77
2023-04-03T23:33:29.516Z,1.90
2023-04-03T23:35:56.343Z,1.80
2023-04-03T23:38:22.874Z,1.90
2023-04-03T23:40:49.338Z,1.90
2023-04-03T23:43:16.159Z,1.90
2023-04-03T23:45:44.567Z,1.77
2023-04-03T23:48:11.062Z,2.00
2023-04-03T23:50:38.418Z,1.90
2023-04-03T23:53:05.197Z,1.70
2023-04-03T23:55:32.744Z,1.90
2023-04-03T23:57:59.585Z,1.83
